sensor_id;sensor_type;location;lat;lon;timestamp;P1;durP1;ratioP1;P2;durP2;ratioP2
33413;SDS011;60055;41.884;12.534;2023-03-17T00:01:04;10.60;;;5.22;;
33413;SDS011;60055;41.884;12.534;2023-03-17T00:03:32;12.13;;;5.00;;
33413;SDS011;60055;41.884;12.534;2023-03-17T00:06:01;11.30;;;5.38;;
33413;SDS011;60055;41.884;12.534;2023-03-17T00:08:32;13.45;;;4.95;;
33413;SDS011;60055;41.884;12.534;2023-03-17T00:11:00;12.27;;;5.60;;
33413;SDS011;60055;41.884;12.534;2023-03-17T00:13:27;12.00;;;5.85;;
33413;SDS011;60055;41.884;12.534;2023-03-17T00:16:01;11.98;;;5.28;;
33413;SDS011;60055;41.884;12.534;2023-03-17T00:18:28;13.77;;;5.13;;
33413;SDS011;60055;41.884;12.534;2023-03-17T00:20:55;9.55;;;5.00;;
33413;SDS011;60055;41.884;12.534;2023-03-17T00:23:22;10.52;;;5.25;;
33413;SDS011;60055;41.884;12.534;2023-03-17T00:25:50;11.02;;;5.13;;
33413;SDS011;60055;41.884;12.534;2023-03-17T00:28:21;13.80;;;5.43;;
33413;SDS011;60055;41.884;12.534;2023-03-17T00:30:49;9.52;;;5.18;;
33413;SDS011;60055;41.884;12.534;2023-03-17T00:33:19;10.45;;;4.72;;
33413;SDS011;60055;41.884;12.534;2023-03-17T00:35:49;9.23;;;4.65;;
33413;SDS011;60055;41.884;12.534;2023-03-17T00:38:17;10.63;;;4.43;;
33413;SDS011;60055;41.884;12.534;2023-03-17T00:40:47;12.13;;;4.57;;
33413;SDS011;60055;41.884;12.534;2023-03-17T00:43:14;10.48;;;4.70;;
33413;SDS011;60055;41.884;12.534;2023-03-17T00:45:40;10.85;;;4.55;;
33413;SDS011;60055;41.884;12.534;2023-03-17T00:48:12;12.15;;;4.47;;
33413;SDS011;60055;41.884;12.534;2023-03-17T00:50:39;9.35;;;4.35;;
33413;SDS011;60055;41.884;12.534;2023-03-17T00:53:14;6.75;;;3.85;;
33413;SDS011;60055;41.884;12.534;2023-03-17T00:55:42;8.18;;;4.68;;
33413;SDS011;60055;41.884;12.534;2023-03-17T00:58:16;8.20;;;4.13;;
33413;SDS011;60055;41.884;12.534;2023-03-17T01:00:47;9.35;;;4.28;;
33413;SDS011;60055;41.884;12.534;2023-03-17T01:03:13;9.45;;;4.50;;
33413;SDS011;60055;41.884;12.534;2023-03-17T01:05:39;10.50;;;4.65;;
33413;SDS011;60055;41.884;12.534;2023-03-17T01:08:10;11.55;;;5.22;;
33413;SDS011;60055;41.884;12.534;2023-03-17T01:10:36;13.63;;;5.32;;
33413;SDS011;60055;41.884;12.534;2023-03-17T01:13:03;7.22;;;4.40;;
33413;SDS011;60055;41.884;12.534;2023-03-17T01:15:29;9.50;;;4.93;;
33413;SDS011;60055;41.884;12.534;2023-03-17T01:17:56;12.15;;;5.50;;
33413;SDS011;60055;41.884;12.534;2023-03-17T01:20:23;8.93;;;4.90;;
33413;SDS011;60055;41.884;12.534;2023-03-17T01:22:56;7.88;;;4.75;;
33413;SDS011;60055;41.884;12.534;2023-03-17T01:25:23;9.45;;;4.78;;
33413;SDS011;60055;41.884;12.534;2023-03-17T01:27:49;11.73;;;4.93;;
33413;SDS011;60055;41.884;12.534;2023-03-17T01:32:48;10.15;;;4.80;;
33413;SDS011;60055;41.884;12.534;2023-03-17T01:35:16;9.90;;;4.35;;
33413;SDS011;60055;41.884;12.534;2023-03-17T01:37:43;9.68;;;4.88;;
33413;SDS011;60055;41.884;12.534;2023-03-17T01:40:13;8.18;;;4.15;;
33413;SDS011;60055;41.884;12.534;2023-03-17T01:42:52;7.68;;;4.10;;
33413;SDS011;60055;41.884;12.534;2023-03-17T01:48:33;10.38;;;3.55;;
33413;SDS011;60055;41.884;12.534;2023-03-17T01:51:22;7.95;;;3.15;;
33413;SDS011;60055;41.884;12.534;2023-03-17T01:54:09;5.22;;;3.00;;
33413;SDS011;60055;41.884;12.534;2023-03-17T01:56:39;6.00;;;2.92;;
33413;SDS011;60055;41.884;12.534;2023-03-17T01:59:10;6.03;;;2.90;;
33413;SDS011;60055;41.884;12.534;2023-03-17T02:01:43;10.55;;;3.08;;
33413;SDS011;60055;41.884;12.534;2023-03-17T02:04:13;5.82;;;2.60;;
33413;SDS011;60055;41.884;12.534;2023-03-17T02:06:43;5.55;;;3.17;;
33413;SDS011;60055;41.884;12.534;2023-03-17T02:09:10;6.95;;;3.67;;
33413;SDS011;60055;41.884;12.534;2023-03-17T02:11:38;6.25;;;3.50;;
33413;SDS011;60055;41.884;12.534;2023-03-17T02:14:04;8.32;;;3.60;;
33413;SDS011;60055;41.884;12.534;2023-03-17T02:16:31;7.85;;;3.78;;
33413;SDS011;60055;41.884;12.534;2023-03-17T02:18:56;6.40;;;3.58;;
33413;SDS011;60055;41.884;12.534;2023-03-17T02:24:09;7.95;;;4.00;;
33413;SDS011;60055;41.884;12.534;2023-03-17T02:26:41;7.55;;;3.97;;
33413;SDS011;60055;41.884;12.534;2023-03-17T02:29:10;9.75;;;3.88;;
33413;SDS011;60055;41.884;12.534;2023-03-17T02:31:36;10.10;;;4.25;;
33413;SDS011;60055;41.884;12.534;2023-03-17T02:36:52;8.60;;;4.90;;
33413;SDS011;60055;41.884;12.534;2023-03-17T02:39:17;10.15;;;4.78;;
33413;SDS011;60055;41.884;12.534;2023-03-17T02:41:43;10.65;;;5.00;;
33413;SDS011;60055;41.884;12.534;2023-03-17T02:44:11;11.40;;;4.57;;
33413;SDS011;60055;41.884;12.534;2023-03-17T02:46:38;12.30;;;4.60;;
33413;SDS011;60055;41.884;12.534;2023-03-17T02:49:03;10.75;;;4.40;;
33413;SDS011;60055;41.884;12.534;2023-03-17T02:51:29;7.63;;;4.05;;
33413;SDS011;60055;41.884;12.534;2023-03-17T02:53:55;9.38;;;4.22;;
33413;SDS011;60055;41.884;12.534;2023-03-17T02:56:22;8.02;;;4.10;;
33413;SDS011;60055;41.884;12.534;2023-03-17T02:58:49;9.73;;;3.97;;
33413;SDS011;60055;41.884;12.534;2023-03-17T03:01:15;6.55;;;3.53;;
33413;SDS011;60055;41.884;12.534;2023-03-17T03:03:42;8.43;;;4.05;;
33413;SDS011;60055;41.884;12.534;2023-03-17T03:06:09;10.63;;;4.30;;
33413;SDS011;60055;41.884;12.534;2023-03-17T03:08:38;10.68;;;4.20;;
33413;SDS011;60055;41.884;12.534;2023-03-17T03:11:09;10.43;;;4.53;;
33413;SDS011;60055;41.884;12.534;2023-03-17T03:13:34;8.40;;;4.70;;
33413;SDS011;60055;41.884;12.534;2023-03-17T03:16:01;12.70;;;5.10;;
33413;SDS011;60055;41.884;12.534;2023-03-17T03:18:26;10.55;;;4.75;;
33413;SDS011;60055;41.884;12.534;2023-03-17T03:20:52;9.90;;;5.18;;
33413;SDS011;60055;41.884;12.534;2023-03-17T03:23:17;13.93;;;5.32;;
33413;SDS011;60055;41.884;12.534;2023-03-17T03:25:43;11.00;;;5.32;;
33413;SDS011;60055;41.884;12.534;2023-03-17T03:28:09;11.65;;;4.97;;
33413;SDS011;60055;41.884;12.534;2023-03-17T03:30:35;13.25;;;5.03;;
33413;SDS011;60055;41.884;12.534;2023-03-17T03:33:01;12.02;;;4.85;;
33413;SDS011;60055;41.884;12.534;2023-03-17T03:35:28;13.05;;;4.70;;
33413;SDS011;60055;41.884;12.534;2023-03-17T03:37:55;15.68;;;4.70;;
33413;SDS011;60055;41.884;12.534;2023-03-17T03:40:22;12.80;;;4.80;;
33413;SDS011;60055;41.884;12.534;2023-03-17T03:42:49;12.07;;;5.28;;
33413;SDS011;60055;41.884;12.534;2023-03-17T03:45:14;8.57;;;4.50;;
33413;SDS011;60055;41.884;12.534;2023-03-17T03:47:44;14.80;;;4.28;;
33413;SDS011;60055;41.884;12.534;2023-03-17T03:50:11;8.73;;;3.88;;
33413;SDS011;60055;41.884;12.534;2023-03-17T03:52:37;15.07;;;4.60;;
33413;SDS011;60055;41.884;12.534;2023-03-17T03:55:02;8.82;;;3.80;;
33413;SDS011;60055;41.884;12.534;2023-03-17T03:57:28;9.60;;;3.97;;
33413;SDS011;60055;41.884;12.534;2023-03-17T03:59:53;8.10;;;3.38;;
33413;SDS011;60055;41.884;12.534;2023-03-17T04:02:19;5.28;;;3.22;;
33413;SDS011;60055;41.884;12.534;2023-03-17T04:04:44;6.03;;;3.00;;
33413;SDS011;60055;41.884;12.534;2023-03-17T04:07:10;5.05;;;2.88;;
33413;SDS011;60055;41.884;12.534;2023-03-17T04:09:39;7.80;;;3.05;;
33413;SDS011;60055;41.884;12.534;2023-03-17T04:12:06;5.05;;;2.35;;
33413;SDS011;60055;41.884;12.534;2023-03-17T04:14:32;7.57;;;2.55;;
33413;SDS011;60055;41.884;12.534;2023-03-17T04:16:58;7.35;;;2.60;;
33413;SDS011;60055;41.884;12.534;2023-03-17T04:19:23;5.95;;;2.50;;
33413;SDS011;60055;41.884;12.534;2023-03-17T04:21:50;5.50;;;2.83;;
33413;SDS011;60055;41.884;12.534;2023-03-17T04:24:16;7.07;;;2.97;;
33413;SDS011;60055;41.884;12.534;2023-03-17T04:26:43;7.03;;;2.40;;
33413;SDS011;60055;41.884;12.534;2023-03-17T04:29:10;8.65;;;2.72;;
33413;SDS011;60055;41.884;12.534;2023-03-17T04:31:40;5.72;;;2.35;;
33413;SDS011;60055;41.884;12.534;2023-03-17T04:34:15;4.90;;;2.70;;
33413;SDS011;60055;41.884;12.534;2023-03-17T04:36:46;5.97;;;2.33;;
33413;SDS011;60055;41.884;12.534;2023-03-17T04:39:13;6.45;;;2.65;;
33413;SDS011;60055;41.884;12.534;2023-03-17T04:41:40;6.05;;;2.13;;
33413;SDS011;60055;41.884;12.534;2023-03-17T04:44:05;7.47;;;2.72;;
33413;SDS011;60055;41.884;12.534;2023-03-17T04:46:31;8.23;;;2.40;;
33413;SDS011;60055;41.884;12.534;2023-03-17T04:48:57;8.15;;;2.75;;
33413;SDS011;60055;41.884;12.534;2023-03-17T04:51:23;5.93;;;2.92;;
33413;SDS011;60055;41.884;12.534;2023-03-17T04:53:49;6.60;;;2.85;;
33413;SDS011;60055;41.884;12.534;2023-03-17T04:56:15;7.75;;;3.25;;
33413;SDS011;60055;41.884;12.534;2023-03-17T04:58:41;8.13;;;3.25;;
33413;SDS011;60055;41.884;12.534;2023-03-17T05:01:07;7.82;;;3.30;;
33413;SDS011;60055;41.884;12.534;2023-03-17T05:03:33;7.78;;;3.90;;
33413;SDS011;60055;41.884;12.534;2023-03-17T05:06:00;9.48;;;3.80;;
33413;SDS011;60055;41.884;12.534;2023-03-17T05:08:33;9.82;;;3.67;;
33413;SDS011;60055;41.884;12.534;2023-03-17T05:11:01;7.95;;;3.50;;
33413;SDS011;60055;41.884;12.534;2023-03-17T05:13:27;6.82;;;3.78;;
33413;SDS011;60055;41.884;12.534;2023-03-17T05:15:53;8.85;;;3.92;;
33413;SDS011;60055;41.884;12.534;2023-03-17T05:18:19;7.90;;;4.07;;
33413;SDS011;60055;41.884;12.534;2023-03-17T05:20:48;7.32;;;3.95;;
33413;SDS011;60055;41.884;12.534;2023-03-17T05:23:15;6.82;;;3.55;;
33413;SDS011;60055;41.884;12.534;2023-03-17T05:25:41;6.40;;;3.38;;
33413;SDS011;60055;41.884;12.534;2023-03-17T05:28:07;7.93;;;3.50;;
33413;SDS011;60055;41.884;12.534;2023-03-17T05:30:34;6.82;;;3.72;;
33413;SDS011;60055;41.884;12.534;2023-03-17T05:33:03;7.03;;;3.28;;
33413;SDS011;60055;41.884;12.534;2023-03-17T05:35:33;7.60;;;3.70;;
33413;SDS011;60055;41.884;12.534;2023-03-17T05:38:00;4.95;;;3.50;;
33413;SDS011;60055;41.884;12.534;2023-03-17T05:40:28;6.80;;;3.20;;
33413;SDS011;60055;41.884;12.534;2023-03-17T05:43:04;6.63;;;3.70;;
33413;SDS011;60055;41.884;12.534;2023-03-17T05:45:31;7.63;;;3.47;;
33413;SDS011;60055;41.884;12.534;2023-03-17T05:47:57;7.22;;;3.38;;
33413;SDS011;60055;41.884;12.534;2023-03-17T05:50:25;10.00;;;3.20;;
33413;SDS011;60055;41.884;12.534;2023-03-17T05:52:51;7.13;;;3.03;;
33413;SDS011;60055;41.884;12.534;2023-03-17T05:55:17;7.10;;;3.65;;
33413;SDS011;60055;41.884;12.534;2023-03-17T05:57:49;9.45;;;3.38;;
33413;SDS011;60055;41.884;12.534;2023-03-17T06:00:15;7.10;;;3.80;;
33413;SDS011;60055;41.884;12.534;2023-03-17T06:02:45;7.43;;;3.60;;
33413;SDS011;60055;41.884;12.534;2023-03-17T06:05:12;5.85;;;3.17;;
33413;SDS011;60055;41.884;12.534;2023-03-17T06:07:37;9.00;;;3.53;;
33413;SDS011;60055;41.884;12.534;2023-03-17T06:10:03;7.53;;;3.25;;
33413;SDS011;60055;41.884;12.534;2023-03-17T06:12:30;7.85;;;3.15;;
33413;SDS011;60055;41.884;12.534;2023-03-17T06:14:58;10.35;;;3.25;;
33413;SDS011;60055;41.884;12.534;2023-03-17T06:17:27;12.77;;;3.70;;
33413;SDS011;60055;41.884;12.534;2023-03-17T06:19:52;8.98;;;3.50;;
33413;SDS011;60055;41.884;12.534;2023-03-17T06:22:19;9.48;;;3.60;;
33413;SDS011;60055;41.884;12.534;2023-03-17T06:24:45;9.30;;;3.20;;
33413;SDS011;60055;41.884;12.534;2023-03-17T06:27:10;8.43;;;3.05;;
33413;SDS011;60055;41.884;12.534;2023-03-17T06:29:38;8.20;;;3.40;;
33413;SDS011;60055;41.884;12.534;2023-03-17T06:32:04;8.38;;;3.60;;
33413;SDS011;60055;41.884;12.534;2023-03-17T06:34:33;10.10;;;3.30;;
33413;SDS011;60055;41.884;12.534;2023-03-17T06:36:58;8.93;;;3.38;;
33413;SDS011;60055;41.884;12.534;2023-03-17T06:39:24;6.85;;;3.30;;
33413;SDS011;60055;41.884;12.534;2023-03-17T06:41:50;10.50;;;3.85;;
33413;SDS011;60055;41.884;12.534;2023-03-17T06:44:16;9.10;;;3.45;;
33413;SDS011;60055;41.884;12.534;2023-03-17T06:46:41;8.13;;;3.70;;
33413;SDS011;60055;41.884;12.534;2023-03-17T06:49:07;8.85;;;3.60;;
33413;SDS011;60055;41.884;12.534;2023-03-17T06:51:38;10.88;;;3.60;;
33413;SDS011;60055;41.884;12.534;2023-03-17T06:54:04;10.07;;;3.80;;
33413;SDS011;60055;41.884;12.534;2023-03-17T06:56:30;9.55;;;3.70;;
33413;SDS011;60055;41.884;12.534;2023-03-17T06:58:56;9.43;;;3.38;;
33413;SDS011;60055;41.884;12.534;2023-03-17T07:01:22;6.32;;;3.30;;
33413;SDS011;60055;41.884;12.534;2023-03-17T07:03:48;8.57;;;3.88;;
33413;SDS011;60055;41.884;12.534;2023-03-17T07:06:13;13.20;;;6.32;;
33413;SDS011;60055;41.884;12.534;2023-03-17T07:08:39;10.55;;;3.70;;
33413;SDS011;60055;41.884;12.534;2023-03-17T07:11:05;6.28;;;3.47;;
33413;SDS011;60055;41.884;12.534;2023-03-17T07:13:31;13.75;;;4.07;;
33413;SDS011;60055;41.884;12.534;2023-03-17T07:15:59;9.32;;;3.63;;
33413;SDS011;60055;41.884;12.534;2023-03-17T07:18:26;8.73;;;3.38;;
33413;SDS011;60055;41.884;12.534;2023-03-17T07:20:56;6.72;;;3.65;;
33413;SDS011;60055;41.884;12.534;2023-03-17T07:23:25;9.68;;;3.75;;
33413;SDS011;60055;41.884;12.534;2023-03-17T07:25:52;7.80;;;3.47;;
33413;SDS011;60055;41.884;12.534;2023-03-17T07:28:18;8.27;;;3.58;;
33413;SDS011;60055;41.884;12.534;2023-03-17T07:30:46;7.03;;;3.50;;
33413;SDS011;60055;41.884;12.534;2023-03-17T07:33:12;9.02;;;3.08;;
33413;SDS011;60055;41.884;12.534;2023-03-17T07:35:38;15.43;;;8.18;;
33413;SDS011;60055;41.884;12.534;2023-03-17T07:38:06;11.82;;;3.83;;
33413;SDS011;60055;41.884;12.534;2023-03-17T07:40:32;9.68;;;3.78;;
33413;SDS011;60055;41.884;12.534;2023-03-17T07:42:58;8.43;;;3.88;;
33413;SDS011;60055;41.884;12.534;2023-03-17T07:45:23;10.38;;;3.42;;
33413;SDS011;60055;41.884;12.534;2023-03-17T07:47:49;9.88;;;3.70;;
33413;SDS011;60055;41.884;12.534;2023-03-17T07:50:14;9.25;;;3.50;;
33413;SDS011;60055;41.884;12.534;2023-03-17T07:52:40;7.25;;;3.45;;
33413;SDS011;60055;41.884;12.534;2023-03-17T07:55:06;9.27;;;3.42;;
33413;SDS011;60055;41.884;12.534;2023-03-17T07:57:34;7.32;;;3.53;;
33413;SDS011;60055;41.884;12.534;2023-03-17T08:00:00;8.85;;;3.40;;
33413;SDS011;60055;41.884;12.534;2023-03-17T08:02:26;9.30;;;4.40;;
33413;SDS011;60055;41.884;12.534;2023-03-17T08:04:51;7.53;;;3.58;;
33413;SDS011;60055;41.884;12.534;2023-03-17T08:07:17;5.45;;;3.00;;
33413;SDS011;60055;41.884;12.534;2023-03-17T08:09:43;8.98;;;3.60;;
33413;SDS011;60055;41.884;12.534;2023-03-17T08:12:09;15.18;;;3.33;;
33413;SDS011;60055;41.884;12.534;2023-03-17T08:14:34;9.40;;;3.20;;
33413;SDS011;60055;41.884;12.534;2023-03-17T08:17:00;7.57;;;2.80;;
33413;SDS011;60055;41.884;12.534;2023-03-17T08:19:26;7.78;;;3.33;;
33413;SDS011;60055;41.884;12.534;2023-03-17T08:21:51;7.25;;;3.22;;
33413;SDS011;60055;41.884;12.534;2023-03-17T08:24:17;6.95;;;3.08;;
33413;SDS011;60055;41.884;12.534;2023-03-17T08:26:47;6.95;;;3.10;;
33413;SDS011;60055;41.884;12.534;2023-03-17T08:29:16;20.90;;;3.40;;
33413;SDS011;60055;41.884;12.534;2023-03-17T08:34:17;21.70;;;3.80;;
33413;SDS011;60055;41.884;12.534;2023-03-17T08:36:44;10.00;;;3.05;;
33413;SDS011;60055;41.884;12.534;2023-03-17T08:39:09;9.65;;;3.28;;
33413;SDS011;60055;41.884;12.534;2023-03-17T08:41:35;7.43;;;2.90;;
33413;SDS011;60055;41.884;12.534;2023-03-17T08:44:01;6.57;;;2.65;;
33413;SDS011;60055;41.884;12.534;2023-03-17T08:46:29;11.25;;;2.85;;
33413;SDS011;60055;41.884;12.534;2023-03-17T08:48:59;8.83;;;2.60;;
33413;SDS011;60055;41.884;12.534;2023-03-17T08:51:30;7.63;;;2.58;;
33413;SDS011;60055;41.884;12.534;2023-03-17T08:53:58;6.60;;;2.25;;
33413;SDS011;60055;41.884;12.534;2023-03-17T08:56:23;8.43;;;2.53;;
33413;SDS011;60055;41.884;12.534;2023-03-17T08:58:49;8.80;;;2.65;;
33413;SDS011;60055;41.884;12.534;2023-03-17T09:01:16;5.32;;;2.20;;
33413;SDS011;60055;41.884;12.534;2023-03-17T09:03:43;5.63;;;3.22;;
33413;SDS011;60055;41.884;12.534;2023-03-17T09:06:09;11.30;;;3.22;;
33413;SDS011;60055;41.884;12.534;2023-03-17T09:08:36;8.10;;;2.90;;
33413;SDS011;60055;41.884;12.534;2023-03-17T09:11:04;11.20;;;2.20;;
33413;SDS011;60055;41.884;12.534;2023-03-17T09:13:31;5.07;;;2.30;;
33413;SDS011;60055;41.884;12.534;2023-03-17T09:21:39;8.48;;;2.38;;
33413;SDS011;60055;41.884;12.534;2023-03-17T09:24:04;5.10;;;2.30;;
33413;SDS011;60055;41.884;12.534;2023-03-17T09:26:31;7.00;;;2.13;;
33413;SDS011;60055;41.884;12.534;2023-03-17T09:28:56;7.05;;;2.20;;
33413;SDS011;60055;41.884;12.534;2023-03-17T09:31:21;7.85;;;2.00;;
33413;SDS011;60055;41.884;12.534;2023-03-17T09:33:51;5.10;;;2.05;;
33413;SDS011;60055;41.884;12.534;2023-03-17T09:36:16;6.55;;;1.88;;
33413;SDS011;60055;41.884;12.534;2023-03-17T09:38:42;6.18;;;1.70;;
33413;SDS011;60055;41.884;12.534;2023-03-17T09:46:14;4.32;;;1.60;;
33413;SDS011;60055;41.884;12.534;2023-03-17T09:49:03;5.90;;;2.10;;
33413;SDS011;60055;41.884;12.534;2023-03-17T09:51:33;4.10;;;2.13;;
33413;SDS011;60055;41.884;12.534;2023-03-17T09:54:10;5.80;;;2.00;;
33413;SDS011;60055;41.884;12.534;2023-03-17T09:56:45;9.65;;;1.75;;
33413;SDS011;60055;41.884;12.534;2023-03-17T10:01:52;9.20;;;2.00;;
33413;SDS011;60055;41.884;12.534;2023-03-17T10:04:41;7.18;;;1.90;;
33413;SDS011;60055;41.884;12.534;2023-03-17T10:07:08;10.63;;;2.03;;
33413;SDS011;60055;41.884;12.534;2023-03-17T10:09:42;5.28;;;2.35;;
33413;SDS011;60055;41.884;12.534;2023-03-17T10:14:53;6.25;;;2.20;;
33413;SDS011;60055;41.884;12.534;2023-03-17T10:17:47;6.15;;;1.92;;
33413;SDS011;60055;41.884;12.534;2023-03-17T10:20:20;7.18;;;2.20;;
33413;SDS011;60055;41.884;12.534;2023-03-17T10:22:51;8.13;;;1.90;;
33413;SDS011;60055;41.884;12.534;2023-03-17T10:25:23;7.18;;;2.20;;
33413;SDS011;60055;41.884;12.534;2023-03-17T10:28:00;6.32;;;2.15;;
33413;SDS011;60055;41.884;12.534;2023-03-17T10:30:46;9.50;;;2.78;;
33413;SDS011;60055;41.884;12.534;2023-03-17T10:33:12;5.68;;;2.05;;
33413;SDS011;60055;41.884;12.534;2023-03-17T10:35:37;7.60;;;1.95;;
33413;SDS011;60055;41.884;12.534;2023-03-17T10:38:13;8.73;;;1.90;;
33413;SDS011;60055;41.884;12.534;2023-03-17T10:40:42;9.32;;;2.20;;
33413;SDS011;60055;41.884;12.534;2023-03-17T10:43:20;9.65;;;2.42;;
33413;SDS011;60055;41.884;12.534;2023-03-17T10:45:54;6.95;;;2.40;;
33413;SDS011;60055;41.884;12.534;2023-03-17T10:48:34;4.88;;;2.03;;
33413;SDS011;60055;41.884;12.534;2023-03-17T10:51:04;8.38;;;2.65;;
33413;SDS011;60055;41.884;12.534;2023-03-17T10:53:35;9.10;;;2.67;;
33413;SDS011;60055;41.884;12.534;2023-03-17T10:56:07;6.95;;;2.58;;
33413;SDS011;60055;41.884;12.534;2023-03-17T11:01:06;6.72;;;2.33;;
33413;SDS011;60055;41.884;12.534;2023-03-17T11:03:44;7.80;;;2.58;;
33413;SDS011;60055;41.884;12.534;2023-03-17T11:06:13;5.93;;;2.50;;
33413;SDS011;60055;41.884;12.534;2023-03-17T11:08:51;5.68;;;2.03;;
33413;SDS011;60055;41.884;12.534;2023-03-17T11:11:25;8.02;;;2.90;;
33413;SDS011;60055;41.884;12.534;2023-03-17T11:14:00;10.30;;;2.50;;
33413;SDS011;60055;41.884;12.534;2023-03-17T11:16:36;5.75;;;2.58;;
33413;SDS011;60055;41.884;12.534;2023-03-17T11:19:04;6.82;;;2.53;;
33413;SDS011;60055;41.884;12.534;2023-03-17T11:21:46;6.80;;;2.63;;
33413;SDS011;60055;41.884;12.534;2023-03-17T11:24:28;8.80;;;3.47;;
33413;SDS011;60055;41.884;12.534;2023-03-17T11:26:58;6.75;;;2.42;;
33413;SDS011;60055;41.884;12.534;2023-03-17T11:29:41;11.07;;;3.38;;
33413;SDS011;60055;41.884;12.534;2023-03-17T11:38:26;8.35;;;2.72;;
33413;SDS011;60055;41.884;12.534;2023-03-17T11:41:13;7.53;;;2.67;;
33413;SDS011;60055;41.884;12.534;2023-03-17T11:43:59;8.40;;;2.90;;
33413;SDS011;60055;41.884;12.534;2023-03-17T11:46:35;7.88;;;2.45;;
33413;SDS011;60055;41.884;12.534;2023-03-17T11:49:27;14.55;;;2.83;;
33413;SDS011;60055;41.884;12.534;2023-03-17T11:55:11;9.27;;;2.75;;
33413;SDS011;60055;41.884;12.534;2023-03-17T11:58:00;10.02;;;2.50;;
33413;SDS011;60055;41.884;12.534;2023-03-17T12:00:46;8.32;;;2.88;;
33413;SDS011;60055;41.884;12.534;2023-03-17T12:03:18;6.57;;;2.60;;
33413;SDS011;60055;41.884;12.534;2023-03-17T12:05:52;6.20;;;2.70;;
33413;SDS011;60055;41.884;12.534;2023-03-17T12:08:28;8.10;;;3.17;;
33413;SDS011;60055;41.884;12.534;2023-03-17T12:11:04;8.15;;;2.28;;
33413;SDS011;60055;41.884;12.534;2023-03-17T12:18:33;6.05;;;3.13;;
33413;SDS011;60055;41.884;12.534;2023-03-17T12:21:38;8.27;;;3.00;;
33413;SDS011;60055;41.884;12.534;2023-03-17T12:27:20;8.32;;;3.80;;
33413;SDS011;60055;41.884;12.534;2023-03-17T12:32:38;8.80;;;3.30;;
33413;SDS011;60055;41.884;12.534;2023-03-17T12:47:12;8.23;;;2.67;;
33413;SDS011;60055;41.884;12.534;2023-03-17T12:49:55;5.65;;;2.33;;
33413;SDS011;60055;41.884;12.534;2023-03-17T12:59:07;6.10;;;1.98;;
33413;SDS011;60055;41.884;12.534;2023-03-17T13:01:41;8.18;;;2.22;;
33413;SDS011;60055;41.884;12.534;2023-03-17T13:15:26;10.90;;;2.40;;
33413;SDS011;60055;41.884;12.534;2023-03-17T13:23:15;9.80;;;2.38;;
33413;SDS011;60055;41.884;12.534;2023-03-17T13:25:56;7.47;;;1.90;;
33413;SDS011;60055;41.884;12.534;2023-03-17T13:28:26;4.25;;;1.90;;
33413;SDS011;60055;41.884;12.534;2023-03-17T13:34:15;9.40;;;1.95;;
33413;SDS011;60055;41.884;12.534;2023-03-17T13:36:44;10.30;;;2.05;;
33413;SDS011;60055;41.884;12.534;2023-03-17T13:42:18;7.20;;;1.90;;
33413;SDS011;60055;41.884;12.534;2023-03-17T13:47:33;6.85;;;2.40;;
33413;SDS011;60055;41.884;12.534;2023-03-17T13:50:11;6.38;;;2.20;;
33413;SDS011;60055;41.884;12.534;2023-03-17T13:52:41;5.43;;;1.83;;
33413;SDS011;60055;41.884;12.534;2023-03-17T14:03:49;6.40;;;1.77;;
33413;SDS011;60055;41.884;12.534;2023-03-17T14:06:57;12.95;;;3.15;;
33413;SDS011;60055;41.884;12.534;2023-03-17T14:09:36;8.35;;;2.58;;
33413;SDS011;60055;41.884;12.534;2023-03-17T14:12:04;7.95;;;2.50;;
33413;SDS011;60055;41.884;12.534;2023-03-17T14:14:39;9.10;;;2.35;;
33413;SDS011;60055;41.884;12.534;2023-03-17T14:17:50;9.27;;;1.90;;
33413;SDS011;60055;41.884;12.534;2023-03-17T14:20:21;5.93;;;2.10;;
33413;SDS011;60055;41.884;12.534;2023-03-17T14:22:55;9.25;;;2.15;;
33413;SDS011;60055;41.884;12.534;2023-03-17T14:25:24;6.53;;;2.00;;
33413;SDS011;60055;41.884;12.534;2023-03-17T14:27:55;5.60;;;1.92;;
33413;SDS011;60055;41.884;12.534;2023-03-17T14:30:22;6.95;;;1.80;;
33413;SDS011;60055;41.884;12.534;2023-03-17T14:33:03;10.93;;;2.40;;
33413;SDS011;60055;41.884;12.534;2023-03-17T14:35:36;11.10;;;2.65;;
33413;SDS011;60055;41.884;12.534;2023-03-17T14:38:22;6.00;;;2.00;;
33413;SDS011;60055;41.884;12.534;2023-03-17T14:40:59;9.65;;;2.40;;
33413;SDS011;60055;41.884;12.534;2023-03-17T14:43:45;9.27;;;2.58;;
33413;SDS011;60055;41.884;12.534;2023-03-17T14:46:15;10.25;;;2.88;;
33413;SDS011;60055;41.884;12.534;2023-03-17T14:48:42;11.80;;;2.70;;
33413;SDS011;60055;41.884;12.534;2023-03-17T14:53:45;7.57;;;2.63;;
33413;SDS011;60055;41.884;12.534;2023-03-17T14:56:12;7.20;;;2.28;;
33413;SDS011;60055;41.884;12.534;2023-03-17T14:58:47;7.28;;;2.15;;
33413;SDS011;60055;41.884;12.534;2023-03-17T15:02:22;9.05;;;2.85;;
33413;SDS011;60055;41.884;12.534;2023-03-17T15:04:55;6.22;;;1.67;;
33413;SDS011;60055;41.884;12.534;2023-03-17T15:18:09;6.25;;;2.08;;
33413;SDS011;60055;41.884;12.534;2023-03-17T15:28:08;9.18;;;2.10;;
33413;SDS011;60055;41.884;12.534;2023-03-17T15:30:44;7.30;;;2.20;;
33413;SDS011;60055;41.884;12.534;2023-03-17T15:35:57;6.30;;;1.60;;
33413;SDS011;60055;41.884;12.534;2023-03-17T15:38:25;8.75;;;1.98;;
33413;SDS011;60055;41.884;12.534;2023-03-17T15:40:52;9.13;;;2.20;;
33413;SDS011;60055;41.884;12.534;2023-03-17T15:43:27;7.47;;;1.73;;
33413;SDS011;60055;41.884;12.534;2023-03-17T15:46:23;6.72;;;1.95;;
33413;SDS011;60055;41.884;12.534;2023-03-17T15:54:51;7.10;;;1.88;;
33413;SDS011;60055;41.884;12.534;2023-03-17T15:57:21;7.60;;;2.17;;
33413;SDS011;60055;41.884;12.534;2023-03-17T16:03:43;8.48;;;2.05;;
33413;SDS011;60055;41.884;12.534;2023-03-17T16:06:09;9.90;;;1.55;;
33413;SDS011;60055;41.884;12.534;2023-03-17T16:12:43;5.13;;;1.63;;
33413;SDS011;60055;41.884;12.534;2023-03-17T16:15:52;6.10;;;1.95;;
33413;SDS011;60055;41.884;12.534;2023-03-17T16:19:12;5.00;;;2.00;;
33413;SDS011;60055;41.884;12.534;2023-03-17T16:22:33;3.75;;;1.50;;
33413;SDS011;60055;41.884;12.534;2023-03-17T16:25:02;7.05;;;1.80;;
33413;SDS011;60055;41.884;12.534;2023-03-17T16:27:37;7.03;;;1.80;;
33413;SDS011;60055;41.884;12.534;2023-03-17T16:30:29;11.18;;;1.90;;
33413;SDS011;60055;41.884;12.534;2023-03-17T16:33:07;6.22;;;1.80;;
33413;SDS011;60055;41.884;12.534;2023-03-17T16:35:55;6.75;;;1.60;;
33413;SDS011;60055;41.884;12.534;2023-03-17T16:38:27;8.32;;;1.67;;
33413;SDS011;60055;41.884;12.534;2023-03-17T16:41:32;7.82;;;1.83;;
33413;SDS011;60055;41.884;12.534;2023-03-17T16:43:59;8.00;;;1.60;;
33413;SDS011;60055;41.884;12.534;2023-03-17T16:46:32;8.15;;;1.90;;
33413;SDS011;60055;41.884;12.534;2023-03-17T16:48:58;5.80;;;1.58;;
33413;SDS011;60055;41.884;12.534;2023-03-17T16:51:23;7.45;;;1.90;;
33413;SDS011;60055;41.884;12.534;2023-03-17T16:53:49;9.15;;;2.08;;
33413;SDS011;60055;41.884;12.534;2023-03-17T16:56:15;6.68;;;2.03;;
33413;SDS011;60055;41.884;12.534;2023-03-17T16:58:43;7.93;;;2.17;;
33413;SDS011;60055;41.884;12.534;2023-03-17T17:01:15;7.80;;;2.65;;
33413;SDS011;60055;41.884;12.534;2023-03-17T17:06:14;5.80;;;2.17;;
33413;SDS011;60055;41.884;12.534;2023-03-17T17:08:42;7.82;;;2.20;;
33413;SDS011;60055;41.884;12.534;2023-03-17T17:11:17;11.80;;;2.28;;
33413;SDS011;60055;41.884;12.534;2023-03-17T17:13:50;9.07;;;2.13;;
33413;SDS011;60055;41.884;12.534;2023-03-17T17:16:18;8.32;;;2.00;;